Time;durP1;ratioP1;P1;durP2;ratioP2;P2;SDS_P1;SDS_P2;PMS_P1;PMS_P2;Temp;Humidity;BMP_temperature;BMP_pressure;BME280_temperature;BME280_humidity;BME280_pressure;Samples;Min_cycle;Max_cycle;Signal;HPM_P1;HPM_P2
2022/07/15 00:00:08;;;;;;;8.70;3.35;;;16.50;47.20;;;;;;5032624;28;20433;-77
2022/07/15 00:02:33;;;;;;;7.65;3.30;;;16.50;47.80;;;;;;5035342;28;20375;-77
2022/07/15 00:04:59;;;;;;;9.73;3.20;;;16.30;48.30;;;;;;5034870;28;20390;-78
2022/07/15 00:07:24;;;;;;;8.45;3.20;;;16.40;48.60;;;;;;5035739;28;20391;-76
2022/07/15 00:12:34;;;;;;;12.63;3.30;;;16.30;49.00;;;;;;5034974;28;20417;-78
2022/07/15 00:15:01;;;;;;;8.95;3.35;;;16.20;49.30;;;;;;5036957;28;20596;-76
2022/07/15 00:17:26;;;;;;;8.77;3.20;;;16.20;49.50;;;;;;5037375;28;20465;-75
2022/07/15 00:19:52;;;;;;;8.57;3.10;;;16.20;49.50;;;;;;5042640;28;20383;-75
2022/07/15 00:22:18;;;;;;;10.65;3.20;;;16.20;48.90;;;;;;5046668;28;20387;-76
2022/07/15 00:24:44;;;;;;;9.77;3.20;;;16.20;49.30;;;;;;5040157;28;20423;-76
2022/07/15 00:27:09;;;;;;;7.47;3.28;;;16.10;50.20;;;;;;5039265;28;20390;-76
2022/07/15 00:29:35;;;;;;;8.90;3.30;;;16.10;50.00;;;;;;5036497;28;20379;-76
2022/07/15 00:32:00;;;;;;;13.67;3.90;;;16.20;49.90;;;;;;5037440;28;20433;-77
2022/07/15 00:34:26;;;;;;;9.18;3.25;;;16.20;49.70;;;;;;5036479;28;20422;-76
2022/07/15 00:36:52;;;;;;;13.55;3.90;;;16.10;49.80;;;;;;5033380;28;20407;-77
2022/07/15 00:39:17;;;;;;;9.73;3.45;;;16.10;50.50;;;;;;5034861;28;20397;-76
2022/07/15 00:41:43;;;;;;;8.70;3.00;;;16.00;50.50;;;;;;5034116;28;20387;-77
2022/07/15 00:44:09;;;;;;;15.07;3.83;;;16.10;49.90;;;;;;5033792;28;20395;-76
2022/07/15 00:46:36;;;;;;;9.52;3.10;;;16.00;51.00;;;;;;5032891;28;20391;-78
2022/07/15 00:49:03;;;;;;;9.95;3.67;;;16.00;50.90;;;;;;5033260;28;20403;-77
2022/07/15 00:51:37;;;;;;;12.57;3.35;;;15.90;52.20;;;;;;5033405;28;20432;-76
2022/07/15 00:54:05;;;;;;;7.95;3.53;;;15.90;51.30;;;;;;5033031;28;20394;-77
2022/07/15 00:56:36;;;;;;;12.15;3.63;;;15.90;50.90;;;;;;5032207;28;20482;-75
2022/07/15 00:59:02;;;;;;;15.57;4.30;;;15.80;51.70;;;;;;5030518;28;20948;-76
2022/07/15 01:01:28;;;;;;;10.30;3.35;;;15.80;52.50;;;;;;5032182;28;20433;-76
2022/07/15 01:03:53;;;;;;;10.25;3.60;;;15.90;52.50;;;;;;5031971;28;20387;-76
2022/07/15 01:06:19;;;;;;;12.25;3.40;;;15.80;52.70;;;;;;5032830;28;20437;-75
2022/07/15 01:08:45;;;;;;;11.75;3.30;;;15.80;52.50;;;;;;5031215;28;20464;-76
2022/07/15 01:11:11;;;;;;;13.35;3.95;;;15.80;51.90;;;;;;5032715;28;20383;-76
2022/07/15 01:13:37;;;;;;;6.30;3.17;;;15.90;52.10;;;;;;5032588;28;20391;-76
2022/07/15 01:16:03;;;;;;;9.80;3.20;;;15.90;52.10;;;;;;5034088;28;20510;-76
2022/07/15 01:18:29;;;;;;;7.97;2.90;;;15.90;51.50;;;;;;5037110;28;20413;-77
2022/07/15 01:20:54;;;;;;;9.00;3.50;;;16.00;51.60;;;;;;5037819;28;20474;-76
2022/07/15 01:23:20;;;;;;;10.40;3.60;;;16.00;50.20;;;;;;5036014;28;20398;-76
2022/07/15 01:25:46;;;;;;;13.98;3.70;;;16.10;49.60;;;;;;5032835;28;20897;-76
2022/07/15 01:28:12;;;;;;;8.80;3.50;;;16.10;49.40;;;;;;5033339;28;20470;-76
2022/07/15 01:30:38;;;;;;;9.73;3.83;;;16.10;49.10;;;;;;5033680;28;20441;-77
2022/07/15 01:33:04;;;;;;;12.70;3.47;;;16.10;48.90;;;;;;5033678;28;20391;-77
2022/07/15 01:35:30;;;;;;;8.80;3.50;;;16.20;48.40;;;;;;5034471;28;20403;-77
2022/07/15 01:37:55;;;;;;;17.52;3.70;;;16.20;48.10;;;;;;5032587;28;20383;-76
2022/07/15 01:40:21;;;;;;;12.50;3.70;;;16.30;48.00;;;;;;5033316;28;20849;-76
2022/07/15 01:42:47;;;;;;;9.30;3.03;;;16.30;47.80;;;;;;5032356;28;20858;-75
2022/07/15 01:45:13;;;;;;;10.57;3.30;;;16.30;47.50;;;;;;5034195;28;20412;-76
2022/07/15 01:47:45;;;;;;;9.88;3.20;;;16.30;47.50;;;;;;5034076;28;20385;-76
2022/07/15 01:50:12;;;;;;;9.50;3.00;;;16.30;47.70;;;;;;5033546;28;20462;-76
2022/07/15 01:52:38;;;;;;;8.50;3.20;;;16.30;47.90;;;;;;5032613;28;20490;-77
2022/07/15 01:55:05;;;;;;;9.43;3.13;;;16.20;48.20;;;;;;5032105;28;20414;-77
2022/07/15 01:57:31;;;;;;;8.40;3.30;;;16.30;48.30;;;;;;5031533;28;20383;-77
2022/07/15 01:59:56;;;;;;;12.50;3.30;;;16.20;48.50;;;;;;5032467;28;20415;-76
2022/07/15 02:02:22;;;;;;;6.80;3.20;;;16.30;48.40;;;;;;5034038;28;20418;-76
2022/07/15 02:04:48;;;;;;;7.63;3.30;;;16.40;48.40;;;;;;5032489;28;20395;-77
2022/07/15 02:07:14;;;;;;;6.38;3.00;;;16.30;49.00;;;;;;5031634;28;20733;-76
2022/07/15 02:09:40;;;;;;;6.00;3.50;;;16.40;48.70;;;;;;5032125;28;20429;-76
2022/07/15 02:12:06;;;;;;;11.57;3.10;;;16.40;48.80;;;;;;5031540;28;20390;-76
2022/07/15 02:14:32;;;;;;;8.50;3.40;;;16.40;48.80;;;;;;5031767;28;20376;-77
2022/07/15 02:16:57;;;;;;;13.60;3.78;;;16.50;49.10;;;;;;5030060;28;20426;-75
2022/07/15 02:19:23;;;;;;;9.70;3.40;;;16.50;49.90;;;;;;5030390;28;20425;-76
2022/07/15 02:21:49;;;;;;;10.82;3.78;;;16.50;49.10;;;;;;5030057;28;20864;-77
2022/07/15 02:24:14;;;;;;;13.10;4.10;;;16.40;49.70;;;;;;5031142;28;20383;-76
2022/07/15 02:26:40;;;;;;;7.77;3.33;;;16.40;49.20;;;;;;5031139;28;20459;-76
2022/07/15 02:29:06;;;;;;;9.60;3.47;;;16.40;49.50;;;;;;5029906;28;20493;-76
2022/07/15 02:31:32;;;;;;;9.50;3.88;;;16.30;49.60;;;;;;5030890;28;20752;-77
2022/07/15 02:33:58;;;;;;;19.40;3.73;;;16.30;50.40;;;;;;5031169;28;20391;-76
2022/07/15 02:36:23;;;;;;;10.70;3.63;;;16.20;50.50;;;;;;5031197;28;20407;-76
2022/07/15 02:38:49;;;;;;;11.47;3.73;;;16.10;51.70;;;;;;5031253;28;20471;-76
2022/07/15 02:41:15;;;;;;;17.17;3.77;;;16.00;52.70;;;;;;5029745;28;20441;-76
2022/07/15 02:43:41;;;;;;;12.97;3.77;;;15.90;53.00;;;;;;5031853;28;20426;-77
2022/07/15 02:46:09;;;;;;;10.45;4.60;;;15.80;53.10;;;;;;5034701;28;20383;-76
2022/07/15 02:48:35;;;;;;;10.20;3.50;;;15.70;55.30;;;;;;5034929;28;20425;-76
2022/07/15 02:51:01;;;;;;;10.45;3.60;;;15.60;55.80;;;;;;5034652;28;20379;-77
2022/07/15 02:53:28;;;;;;;6.93;3.80;;;15.70;54.50;;;;;;5035025;28;21014;-76
2022/07/15 02:55:55;;;;;;;14.25;3.30;;;15.70;53.90;;;;;;5035323;28;20533;-76
2022/07/15 02:58:22;;;;;;;11.32;3.10;;;15.80;52.30;;;;;;5035860;28;20384;-75
2022/07/15 03:00:48;;;;;;;9.57;3.70;;;15.80;52.10;;;;;;5035756;28;20748;-75
2022/07/15 03:03:13;;;;;;;13.73;4.57;;;15.80;52.70;;;;;;5043316;28;20487;-75
2022/07/15 03:05:39;;;;;;;11.20;3.47;;;15.80;53.70;;;;;;5045255;28;20395;-74
2022/07/15 03:08:04;;;;;;;8.87;3.60;;;15.80;54.40;;;;;;5044358;28;20895;-75
2022/07/15 03:10:30;;;;;;;10.20;3.95;;;15.70;54.60;;;;;;5044161;28;20771;-76
2022/07/15 03:12:56;;;;;;;15.13;4.20;;;15.60;56.10;;;;;;5042826;28;20391;-76
2022/07/15 03:15:21;;;;;;;12.95;4.35;;;15.50;57.30;;;;;;5042527;28;20510;-76
2022/07/15 03:17:47;;;;;;;11.70;4.13;;;15.40;58.80;;;;;;5041679;28;20449;-76
2022/07/15 03:20:12;;;;;;;11.23;4.50;;;15.40;60.40;;;;;;5040200;28;20737;-74
2022/07/15 03:22:38;;;;;;;14.30;5.40;;;15.30;61.70;;;;;;5048693;28;20410;-77
2022/07/15 03:25:04;;;;;;;11.77;4.83;;;15.20;64.20;;;;;;5049467;28;20477;-75
2022/07/15 03:27:30;;;;;;;18.27;5.95;;;15.10;64.60;;;;;;5048318;28;20395;-76
2022/07/15 03:29:55;;;;;;;12.35;5.18;;;15.10;66.60;;;;;;5048949;28;20402;-75
2022/07/15 03:32:21;;;;;;;16.07;5.80;;;15.00;67.20;;;;;;5049573;28;20395;-76
2022/07/15 03:34:48;;;;;;;11.27;5.00;;;15.00;68.00;;;;;;5050002;28;20513;-76
2022/07/15 03:37:14;;;;;;;14.07;4.53;;;14.90;68.60;;;;;;5049271;28;20417;-74
2022/07/15 03:39:40;;;;;;;18.75;5.97;;;14.90;68.90;;;;;;5039554;28;20395;-78
2022/07/15 03:42:06;;;;;;;14.40;5.40;;;14.90;69.20;;;;;;5036694;28;20379;-76
2022/07/15 03:44:32;;;;;;;12.07;5.00;;;14.80;69.70;;;;;;5034806;28;20406;-77
2022/07/15 03:46:57;;;;;;;14.80;5.50;;;14.90;69.70;;;;;;5037245;28;20391;-77
2022/07/15 03:49:23;;;;;;;21.87;5.60;;;14.90;69.00;;;;;;5035687;28;20460;-75
2022/07/15 03:51:48;;;;;;;19.00;4.60;;;14.90;69.00;;;;;;5035640;28;20429;-76
2022/07/15 03:54:14;;;;;;;15.65;5.25;;;14.80;68.80;;;;;;5034419;28;20417;-76
2022/07/15 03:56:39;;;;;;;16.05;5.57;;;14.80;69.70;;;;;;5033849;28;20434;-76
2022/07/15 03:59:06;;;;;;;18.33;5.83;;;14.80;70.20;;;;;;5032138;28;20387;-74
2022/07/15 04:01:32;;;;;;;12.18;5.45;;;14.80;70.50;;;;;;5033406;28;20783;-75
2022/07/15 04:03:58;;;;;;;17.88;5.47;;;14.80;70.40;;;;;;5033563;28;20874;-75
2022/07/15 04:06:24;;;;;;;17.83;5.88;;;14.90;70.10;;;;;;5044397;28;20406;-74
2022/07/15 04:08:50;;;;;;;14.32;5.10;;;14.90;70.10;;;;;;5047807;28;20391;-75
2022/07/15 04:11:16;;;;;;;12.95;5.78;;;14.90;69.80;;;;;;5033448;28;20391;-76
2022/07/15 04:13:42;;;;;;;14.97;5.63;;;15.00;69.90;;;;;;5033086;28;20914;-75
2022/07/15 04:16:09;;;;;;;17.35;6.00;;;15.00;70.20;;;;;;5033490;28;20677;-74
2022/07/15 04:18:35;;;;;;;16.45;5.78;;;15.00;70.50;;;;;;5033405;28;20876;-75
2022/07/15 04:21:01;;;;;;;16.75;6.18;;;15.00;70.30;;;;;;5032901;28;20398;-76
2022/07/15 04:23:27;;;;;;;16.30;5.88;;;15.00;70.30;;;;;;5032687;28;20880;-76
2022/07/15 04:25:53;;;;;;;20.63;6.25;;;15.00;70.50;;;;;;5032527;28;20433;-75
2022/07/15 04:28:22;;;;;;;16.42;5.93;;;15.10;69.40;;;;;;5032130;28;20872;-75
2022/07/15 04:30:49;;;;;;;15.07;5.50;;;15.10;69.80;;;;;;5032547;28;20439;-75
2022/07/15 04:33:15;;;;;;;16.58;6.18;;;15.20;67.40;;;;;;5032496;28;20383;-75
2022/07/15 04:35:41;;;;;;;17.83;6.40;;;15.30;67.00;;;;;;5032259;28;20469;-75
2022/07/15 04:38:07;;;;;;;14.98;5.68;;;15.30;66.80;;;;;;5032337;28;20379;-75
2022/07/15 04:40:34;;;;;;;20.00;7.10;;;15.30;66.60;;;;;;5032610;28;20387;-76
2022/07/15 04:43:01;;;;;;;21.20;6.88;;;15.30;65.80;;;;;;5032512;28;21007;-76
2022/07/15 04:45:27;;;;;;;15.40;7.10;;;15.40;65.60;;;;;;5030962;28;20508;-77
2022/07/15 04:47:53;;;;;;;12.80;6.68;;;15.40;65.20;;;;;;5031876;28;20383;-76
2022/07/15 04:53:04;;;;;;;13.93;6.28;;;15.40;64.60;;;;;;5031896;28;20442;-76
2022/07/15 04:55:30;;;;;;;11.48;6.53;;;15.50;63.10;;;;;;5033954;28;20892;-75
2022/07/15 04:57:56;;;;;;;12.85;6.70;;;15.50;62.90;;;;;;5033821;28;20387;-75
2022/07/15 05:00:21;;;;;;;12.98;6.25;;;15.60;62.90;;;;;;5031162;28;20441;-76
2022/07/15 05:02:47;;;;;;;17.20;6.23;;;15.80;59.40;;;;;;5032270;28;20841;-75
2022/07/15 05:05:13;;;;;;;17.25;5.88;;;15.90;58.40;;;;;;5030692;28;20771;-75
2022/07/15 05:07:38;;;;;;;15.48;6.10;;;15.80;59.00;;;;;;5032148;28;20877;-76
2022/07/15 05:10:05;;;;;;;14.25;6.00;;;15.80;59.80;;;;;;5032930;28;20420;-77
2022/07/15 05:12:31;;;;;;;17.73;7.32;;;15.90;59.40;;;;;;5032497;28;20394;-77
2022/07/15 05:14:57;;;;;;;19.17;7.18;;;15.90;58.50;;;;;;5032426;28;20387;-75
2022/07/15 05:17:22;;;;;;;23.15;6.60;;;15.90;59.00;;;;;;5030849;28;20379;-76
2022/07/15 05:19:48;;;;;;;17.07;6.57;;;16.00;57.60;;;;;;5032689;28;20386;-76
2022/07/15 05:22:15;;;;;;;15.93;5.97;;;16.00;57.10;;;;;;5031899;28;20759;-76
2022/07/15 05:24:41;;;;;;;19.92;7.22;;;15.90;57.20;;;;;;5031358;28;20470;-75
2022/07/15 05:27:07;;;;;;;20.27;6.80;;;16.10;56.90;;;;;;5031856;28;20811;-76
2022/07/15 05:29:32;;;;;;;16.97;7.10;;;16.20;56.00;;;;;;5031405;28;20819;-76
2022/07/15 05:31:58;;;;;;;17.65;6.40;;;16.20;54.30;;;;;;5031725;28;20807;-76
2022/07/15 05:34:23;;;;;;;18.83;5.70;;;16.10;55.10;;;;;;5032454;28;20410;-77
2022/07/15 05:36:49;;;;;;;16.03;6.50;;;16.10;54.20;;;;;;5034276;28;20410;-76
2022/07/15 05:39:15;;;;;;;19.97;5.90;;;15.90;55.50;;;;;;5034171;28;20379;-76
2022/07/15 05:41:40;;;;;;;16.77;6.20;;;15.80;56.90;;;;;;5033287;28;20458;-74
2022/07/15 05:44:07;;;;;;;15.43;6.00;;;16.00;56.10;;;;;;5032222;28;20462;-76
2022/07/15 05:46:32;;;;;;;13.90;5.33;;;16.10;55.40;;;;;;5031460;28;20884;-77
2022/07/15 05:48:58;;;;;;;9.47;4.83;;;16.10;54.70;;;;;;5034791;28;20433;-76
2022/07/15 05:51:23;;;;;;;16.40;5.43;;;16.20;52.30;;;;;;5044125;28;20399;-76
2022/07/15 05:53:49;;;;;;;20.40;6.75;;;16.20;53.60;;;;;;5042530;28;20482;-76
2022/07/15 05:56:15;;;;;;;14.70;5.30;;;16.10;54.30;;;;;;5031291;28;20414;-77
2022/07/15 05:58:40;;;;;;;11.10;4.90;;;16.20;52.10;;;;;;5031183;28;20860;-76
2022/07/15 06:01:06;;;;;;;13.60;4.38;;;16.30;50.30;;;;;;5043142;28;20408;-76
2022/07/15 06:03:32;;;;;;;10.80;4.10;;;16.30;50.20;;;;;;5029627;28;20387;-75
2022/07/15 06:05:58;;;;;;;16.77;5.07;;;16.30;48.40;;;;;;5035965;28;20398;-77
2022/07/15 06:08:23;;;;;;;14.82;4.57;;;16.30;48.20;;;;;;5051101;28;20389;-75
2022/07/15 06:10:49;;;;;;;13.57;4.53;;;16.10;50.00;;;;;;5043134;28;20413;-76
2022/07/15 06:13:15;;;;;;;14.53;5.03;;;16.00;50.20;;;;;;5030915;28;20388;-76
2022/07/15 06:15:40;;;;;;;16.20;5.25;;;16.10;51.50;;;;;;5031857;28;20407;-76
2022/07/15 06:18:06;;;;;;;16.53;5.00;;;16.20;51.20;;;;;;5039074;28;20436;-74
2022/07/15 06:20:32;;;;;;;15.15;4.40;;;16.30;51.50;;;;;;5053784;28;20413;-75
2022/07/15 06:22:58;;;;;;;12.75;3.63;;;16.60;44.50;;;;;;5043047;28;20391;-75
2022/07/15 06:25:23;;;;;;;11.97;4.03;;;16.60;45.00;;;;;;5048164;28;20452;-76
2022/07/15 06:27:49;;;;;;;11.17;3.87;;;16.60;45.70;;;;;;5038312;28;20506;-76
2022/07/15 06:30:15;;;;;;;12.87;4.70;;;16.80;45.30;;;;;;5034969;28;20454;-75
2022/07/15 06:32:40;;;;;;;8.05;3.50;;;16.90;41.10;;;;;;5044947;28;20751;-75
2022/07/15 06:35:07;;;;;;;12.20;3.87;;;16.90;42.00;;;;;;5053734;28;20397;-75
2022/07/15 06:37:32;;;;;;;11.05;3.75;;;17.00;40.40;;;;;;5052639;28;20844;-75
2022/07/15 06:39:58;;;;;;;9.70;3.83;;;16.90;39.70;;;;;;5054118;28;20409;-76
2022/07/15 06:42:24;;;;;;;8.57;3.30;;;17.00;39.70;;;;;;5053776;28;20385;-76
2022/07/15 06:44:50;;;;;;;12.25;3.53;;;17.00;39.10;;;;;;5052419;28;20389;-75
2022/07/15 06:47:15;;;;;;;7.53;2.60;;;17.10;36.10;;;;;;5053725;28;20460;-75
2022/07/15 06:49:41;;;;;;;7.45;2.60;;;17.00;35.50;;;;;;5053798;28;20393;-75
2022/07/15 06:52:07;;;;;;;9.02;2.95;;;17.10;34.90;;;;;;5053713;28;20469;-76
2022/07/15 06:54:32;;;;;;;9.52;2.88;;;17.20;35.20;;;;;;5050778;28;20405;-75
2022/07/15 06:56:59;;;;;;;7.50;2.57;;;17.40;34.10;;;;;;5048178;28;20406;-75
2022/07/15 06:59:25;;;;;;;6.50;3.20;;;17.60;33.60;;;;;;5057452;28;20391;-74
2022/07/15 07:01:51;;;;;;;8.95;2.90;;;17.60;33.00;;;;;;5051899;28;20468;-74
2022/07/15 07:04:18;;;;;;;8.15;3.00;;;17.50;33.10;;;;;;5063147;28;20866;-74
2022/07/15 07:06:44;;;;;;;8.87;3.40;;;17.60;34.00;;;;;;5062636;28;20449;-76
2022/07/15 07:09:10;;;;;;;10.25;3.85;;;17.60;34.00;;;;;;5041338;28;20391;-76
2022/07/15 07:11:36;;;;;;;9.35;3.20;;;17.70;33.70;;;;;;5041748;28;20445;-75
2022/07/15 07:14:02;;;;;;;8.25;3.00;;;17.90;33.70;;;;;;5040533;28;20387;-74
2022/07/15 07:16:28;;;;;;;11.70;4.00;;;18.40;31.10;;;;;;5037956;28;20407;-75
2022/07/15 07:18:54;;;;;;;10.82;4.30;;;18.70;28.90;;;;;;5051881;28;20390;-75
2022/07/15 07:21:20;;;;;;;10.85;4.70;;;19.00;28.20;;;;;;5063947;28;20413;-75
2022/07/15 07:23:46;;;;;;;13.68;4.50;;;19.20;27.20;;;;;;5067142;28;20393;-74
2022/07/15 07:26:13;;;;;;;19.45;6.25;;;19.10;27.00;;;;;;5069248;28;20409;-74
2022/07/15 07:28:40;;;;;;;20.50;7.63;;;18.70;27.80;;;;;;5065989;28;20492;-74
2022/07/15 07:31:09;;;;;;;14.35;5.88;;;18.30;29.40;;;;;;5065610;28;20386;-75
2022/07/15 07:33:35;;;;;;;12.93;4.90;;;18.10;30.40;;;;;;5066788;28;20389;-75
2022/07/15 07:36:03;;;;;;;13.53;5.07;;;17.80;28.60;;;;;;5065559;28;20523;-75
2022/07/15 07:38:30;;;;;;;14.07;5.35;;;17.80;29.40;;;;;;5065654;28;20457;-74
2022/07/15 07:40:56;;;;;;;11.80;5.00;;;17.90;29.40;;;;;;5065086;28;20388;-74
2022/07/15 07:43:21;;;;;;;11.00;4.00;;;18.00;28.20;;;;;;5075067;22;20381;-75
2022/07/15 07:45:47;;;;;;;12.80;4.10;;;18.00;28.30;;;;;;5052978;28;20381;-76
2022/07/15 07:48:13;;;;;;;9.30;3.00;;;17.90;28.30;;;;;;5053348;28;20380;-77
2022/07/15 07:50:39;;;;;;;10.48;3.50;;;17.90;28.20;;;;;;5057019;28;20870;-77
2022/07/15 07:53:06;;;;;;;8.82;3.00;;;18.10;27.60;;;;;;5054381;28;20397;-77
2022/07/15 07:55:31;;;;;;;16.35;3.22;;;18.10;27.60;;;;;;5055321;28;20886;-77
2022/07/15 07:57:59;;;;;;;9.05;3.15;;;18.10;27.10;;;;;;5054710;28;20409;-77
2022/07/15 08:00:27;;;;;;;11.93;3.25;;;18.30;27.30;;;;;;5055843;28;20385;-77
2022/07/15 08:02:54;;;;;;;10.07;3.40;;;18.60;26.50;;;;;;5054559;28;20421;-76
2022/07/15 08:05:20;;;;;;;10.23;3.10;;;18.90;25.90;;;;;;5056468;28;20424;-77
2022/07/15 08:07:46;;;;;;;9.43;3.17;;;19.20;25.20;;;;;;5041214;28;20429;-77
2022/07/15 08:10:13;;;;;;;13.70;3.20;;;19.50;23.50;;;;;;5059239;28;20882;-76
2022/07/15 08:12:39;;;;;;;13.88;3.70;;;19.80;21.70;;;;;;5052872;28;20880;-76
2022/07/15 08:15:08;;;;;;;12.57;2.80;;;20.20;20.90;;;;;;5051993;28;20378;-77
2022/07/15 08:17:34;;;;;;;7.45;2.60;;;20.60;19.90;;;;;;5057265;28;20919;-76
2022/07/15 08:20:00;;;;;;;9.32;2.80;;;20.80;19.80;;;;;;5053800;28;20393;-77
2022/07/15 08:22:26;;;;;;;9.43;3.30;;;21.20;18.40;;;;;;5034412;28;20414;-75
2022/07/15 08:24:51;;;;;;;10.40;3.47;;;21.20;17.90;;;;;;5048909;28;20405;-74
2022/07/15 08:27:18;;;;;;;7.83;2.97;;;21.00;17.80;;;;;;5054485;28;20398;-75
2022/07/15 08:29:44;;;;;;;10.20;3.75;;;20.90;18.50;;;;;;5037688;28;20417;-74
2022/07/15 08:32:10;;;;;;;6.28;2.92;;;20.50;17.70;;;;;;5031558;28;20453;-74
2022/07/15 08:34:36;;;;;;;13.13;3.80;;;19.70;19.90;;;;;;5032096;28;20395;-73
2022/07/15 08:37:02;;;;;;;11.83;3.37;;;19.10;20.20;;;;;;5031426;28;20417;-74
2022/07/15 08:39:27;;;;;;;9.80;3.90;;;18.60;21.00;;;;;;5031308;28;20401;-74
2022/07/15 08:41:53;;;;;;;8.70;3.53;;;18.30;19.90;;;;;;5029634;28;20460;-75
2022/07/15 08:44:19;;;;;;;14.02;3.50;;;18.40;21.60;;;;;;5033672;28;20412;-75
2022/07/15 08:46:47;;;;;;;11.77;4.97;;;18.50;21.20;;;;;;5031287;28;20379;-75
2022/07/15 08:49:15;;;;;;;13.85;6.22;;;18.60;21.00;;;;;;5038895;28;20400;-74
2022/07/15 08:51:46;;;;;;;9.18;4.90;;;18.90;18.80;;;;;;5051327;28;20909;-76
2022/07/15 08:54:13;;;;;;;9.63;4.50;;;18.80;17.40;;;;;;5053482;28;20389;-74
2022/07/15 08:56:39;;;;;;;10.02;4.75;;;19.20;17.80;;;;;;5048585;28;20511;-78
2022/07/15 08:59:06;;;;;;;11.40;4.50;;;19.80;17.50;;;;;;5050738;28;20517;-77
2022/07/15 09:01:34;;;;;;;8.43;3.90;;;20.40;15.60;;;;;;5051491;28;20911;-77
2022/07/15 09:04:00;;;;;;;10.05;3.17;;;20.80;14.80;;;;;;5046224;28;20951;-77
2022/07/15 09:06:33;;;;;;;14.02;4.18;;;21.30;13.40;;;;;;5040279;28;20856;-77
2022/07/15 09:09:18;;;;;;;9.48;2.30;;;21.40;13.70;;;;;;5036630;28;20731;-76
2022/07/15 09:12:03;;;;;;;4.55;1.90;;;21.30;14.50;;;;;;5051079;28;20770;-76
2022/07/15 09:14:30;;;;;;;7.35;2.00;;;21.20;14.50;;;;;;5036862;28;20474;-76
2022/07/15 09:17:11;;;;;;;3.97;1.60;;;21.10;14.70;;;;;;5031274;28;20791;-78
2022/07/15 09:20:07;;;;;;;5.30;1.80;;;21.20;14.50;;;;;;5035193;28;20385;-77
2022/07/15 09:22:55;;;;;;;7.82;1.63;;;21.50;14.20;;;;;;5034780;28;20409;-77
2022/07/15 09:25:22;;;;;;;6.70;1.90;;;21.70;12.90;;;;;;5034765;28;20391;-76
2022/07/15 09:27:48;;;;;;;7.15;1.50;;;21.30;13.70;;;;;;5034237;28;20752;-78
2022/07/15 09:36:01;;;;;;;4.60;1.60;;;20.90;13.10;;;;;;5031173;28;20468;-76
2022/07/15 09:38:50;;;;;;;4.85;1.27;;;21.40;12.30;;;;;;5039999;28;20385;-76
2022/07/15 09:41:25;;;;;;;4.70;1.20;;;21.50;12.70;;;;;;5050334;28;20479;-76
2022/07/15 09:44:01;;;;;;;5.03;1.63;;;21.60;11.90;;;;;;5050898;28;20443;-76
2022/07/15 09:46:47;;;;;;;5.35;1.20;;;21.80;12.30;;;;;;5049292;28;20421;-77
2022/07/15 09:49:23;;;;;;;7.40;1.77;;;21.90;11.80;;;;;;5052539;28;20388;-78
2022/07/15 09:51:57;;;;;;;6.80;2.10;;;22.00;11.80;;;;;;5051123;28;20385;-79
2022/07/15 09:54:31;;;;;;;5.90;2.00;;;22.00;11.80;;;;;;5051677;28;20386;-77
2022/07/15 09:56:59;;;;;;;6.40;1.52;;;22.00;11.50;;;;;;5055745;28;20448;-77
2022/07/15 09:59:25;;;;;;;6.10;1.65;;;22.10;11.50;;;;;;5059644;28;20385;-76
2022/07/15 10:01:51;;;;;;;3.67;1.30;;;21.90;10.60;;;;;;5059916;28;20431;-77
2022/07/15 10:04:21;;;;;;;4.73;1.50;;;21.30;11.80;;;;;;5048624;28;20674;-78
2022/07/15 10:06:50;;;;;;;4.35;1.58;;;21.00;13.40;;;;;;5035691;28;20387;-79
2022/07/15 10:09:21;;;;;;;3.70;1.50;;;20.90;13.50;;;;;;5037094;28;20406;-78
2022/07/15 10:11:51;;;;;;;4.63;1.30;;;21.00;12.70;;;;;;5036864;28;20482;-77
2022/07/15 10:15:02;;;;;;;5.72;1.40;;;21.00;12.40;;;;;;5052514;28;20405;-78
2022/07/15 10:18:02;;;;;;;3.65;1.30;;;21.40;12.70;;;;;;5011680;28;20489;-77
2022/07/15 10:20:46;;;;;;;3.63;1.80;;;21.00;12.60;;;;;;5034606;28;20410;-78
2022/07/15 10:23:51;;;;;;;3.72;1.50;;;21.30;12.80;;;;;;5052847;28;20823;-77
2022/07/15 10:26:41;;;;;;;3.78;1.50;;;21.80;12.30;;;;;;5022927;28;20420;-77
2022/07/15 10:29:09;;;;;;;7.60;1.70;;;21.50;12.70;;;;;;5042912;28;20406;-79
2022/07/15 10:31:38;;;;;;;5.75;1.40;;;21.10;13.10;;;;;;5035218;28;20402;-78
2022/07/15 10:34:06;;;;;;;6.00;1.70;;;20.90;13.80;;;;;;5034045;28;20945;-78
2022/07/15 10:36:47;;;;;;;5.72;1.77;;;21.00;13.60;;;;;;5034316;28;20438;-77
2022/07/15 10:39:14;;;;;;;6.90;1.70;;;21.70;12.60;;;;;;5034987;28;20739;-76
2022/07/15 10:42:03;;;;;;;7.97;2.30;;;22.60;11.10;;;;;;5034002;28;20876;-77
2022/07/15 10:44:32;;;;;;;5.93;1.70;;;22.90;9.80;;;;;;5047919;28;20439;-78
2022/07/15 10:47:31;;;;;;;3.37;1.50;;;22.70;10.10;;;;;;5043868;28;20417;-76
2022/07/15 10:49:56;;;;;;;4.30;1.60;;;22.60;10.60;;;;;;5013303;28;20394;-74
2022/07/15 10:52:30;;;;;;;5.40;1.73;;;22.20;11.80;;;;;;5049229;28;20419;-75
2022/07/15 10:54:56;;;;;;;8.95;1.98;;;21.50;12.80;;;;;;5053681;28;20466;-73
2022/07/15 10:57:42;;;;;;;3.80;1.40;;;21.40;13.50;;;;;;5055288;28;20750;-74
2022/07/15 11:00:35;;;;;;;3.47;1.60;;;21.10;13.50;;;;;;5035397;28;20549;-74
2022/07/15 11:03:04;;;;;;;7.20;2.10;;;20.70;13.90;;;;;;5041331;28;20393;-75
2022/07/15 11:05:31;;;;;;;5.68;1.67;;;20.90;14.40;;;;;;5048781;28;20399;-74
2022/07/15 11:07:56;;;;;;;4.82;1.40;;;21.40;13.10;;;;;;5043439;28;20395;-77
2022/07/15 11:10:23;;;;;;;7.40;1.60;;;22.10;12.10;;;;;;5033827;28;20395;-73
2022/07/15 11:12:48;;;;;;;7.00;1.77;;;22.40;11.50;;;;;;5036966;28;20437;-78
2022/07/15 11:15:16;;;;;;;5.75;1.42;;;22.30;11.80;;;;;;5036790;28;20394;-75
2022/07/15 11:17:49;;;;;;;5.53;1.57;;;22.30;11.40;;;;;;5033856;28;20383;-77
2022/07/15 11:20:17;;;;;;;6.82;1.50;;;22.00;11.60;;;;;;5044804;28;20797;-78
2022/07/15 11:22:52;;;;;;;6.00;1.80;;;21.80;10.70;;;;;;5055112;28;20382;-78
2022/07/15 11:25:32;;;;;;;4.10;1.30;;;21.70;10.90;;;;;;5052961;28;20393;-77
2022/07/15 11:28:12;;;;;;;5.80;1.60;;;22.10;10.80;;;;;;5053791;28;20488;-77
2022/07/15 11:30:47;;;;;;;4.43;1.42;;;22.60;10.40;;;;;;5054071;28;20853;-77
2022/07/15 11:33:17;;;;;;;3.90;1.30;;;21.70;12.00;;;;;;5053524;28;20862;-79
2022/07/15 11:35:43;;;;;;;6.32;1.50;;;21.00;13.60;;;;;;5053506;28;20825;-75
2022/07/15 11:38:09;;;;;;;5.57;1.70;;;20.90;13.70;;;;;;5051130;28;20692;-76
2022/07/15 11:46:05;;;;;;;6.72;1.90;;;21.70;11.90;;;;;;5052911;28;20431;-77
2022/07/15 11:48:38;;;;;;;5.75;1.67;;;21.70;11.10;;;;;;5052615;28;20400;-77
2022/07/15 11:51:05;;;;;;;3.28;1.27;;;22.10;10.50;;;;;;5051355;28;20392;-77
2022/07/15 11:53:39;;;;;;;6.30;1.50;;;22.40;10.00;;;;;;5052827;28;20789;-77
2022/07/15 11:56:06;;;;;;;6.80;1.30;;;22.50;10.10;;;;;;5052608;28;20409;-78
2022/07/15 11:58:41;;;;;;;8.43;2.10;;;22.30;11.30;;;;;;5052652;28;20564;-77
2022/07/15 12:01:12;;;;;;;4.00;1.50;;;22.60;9.20;;;;;;5052113;28;20420;-78
2022/07/15 12:03:47;;;;;;;4.95;1.67;;;23.00;8.50;;;;;;5052315;28;20929;-80
2022/07/15 12:06:24;;;;;;;3.50;1.60;;;23.20;8.00;;;;;;5052706;28;20683;-77
2022/07/15 12:08:51;;;;;;;3.45;1.58;;;23.10;6.50;;;;;;5052835;28;20480;-78
2022/07/15 12:11:25;;;;;;;3.97;1.70;;;22.80;6.90;;;;;;5053281;28;20468;-78
2022/07/15 12:14:00;;;;;;;2.83;1.20;;;22.80;8.50;;;;;;5063281;28;20373;-79
2022/07/15 12:16:34;;;;;;;4.47;1.20;;;22.90;9.30;;;;;;5058681;28;20874;-79
2022/07/15 12:19:05;;;;;;;6.35;1.60;;;23.00;8.70;;;;;;5059526;28;20420;-79
2022/07/15 12:21:32;;;;;;;4.72;1.63;;;23.20;8.20;;;;;;5060729;28;20374;-78
2022/07/15 12:24:15;;;;;;;4.30;1.35;;;23.80;8.20;;;;;;5067958;28;20373;-78
2022/07/15 12:26:54;;;;;;;6.70;1.80;;;24.10;7.20;;;;;;5075521;28;20394;-79
2022/07/15 12:29:25;;;;;;;4.47;2.00;;;24.60;5.70;;;;;;5072380;28;20392;-79
2022/07/15 12:32:06;;;;;;;7.35;1.70;;;24.40;6.00;;;;;;5070949;28;20391;-78
2022/07/15 12:34:47;;;;;;;10.05;1.80;;;24.10;7.50;;;;;;5061535;28;20742;-78
2022/07/15 12:37:15;;;;;;;6.70;2.00;;;23.40;7.60;;;;;;5057382;28;20747;-79
2022/07/15 12:40:01;;;;;;;7.05;1.70;;;22.80;8.80;;;;;;5062907;28;20932;-78
2022/07/15 12:42:31;;;;;;;4.60;1.50;;;22.70;9.00;;;;;;5066046;28;20374;-79
2022/07/15 12:45:36;;;;;;;4.53;1.52;;;22.90;8.10;;;;;;5060308;28;20904;-79
2022/07/15 12:48:06;;;;;;;3.20;1.40;;;23.10;8.30;;;;;;5026947;28;20393;-79
2022/07/15 12:50:42;;;;;;;5.50;1.75;;;22.70;9.10;;;;;;5057172;28;20874;-79
2022/07/15 12:53:08;;;;;;;5.00;1.20;;;22.50;9.60;;;;;;5059921;28;20381;-79
2022/07/15 12:55:41;;;;;;;6.20;1.70;;;22.50;9.40;;;;;;5064953;28;20428;-78
2022/07/15 12:58:10;;;;;;;4.50;1.70;;;22.80;9.10;;;;;;5058235;28;20381;-79
2022/07/15 13:00:37;;;;;;;3.92;1.75;;;22.80;9.10;;;;;;5056913;28;20396;-79
2022/07/15 13:03:11;;;;;;;3.80;1.60;;;22.70;9.10;;;;;;5056333;28;20475;-78
2022/07/15 13:05:41;;;;;;;5.38;1.60;;;22.50;9.40;;;;;;5056414;28;20759;-78